sensor_id;sensor_type;location;lat;lon;timestamp;P1;durP1;ratioP1;P2;durP2;ratioP2
38037;SDS011;23843;51.320;12.340;2023-07-31T00:01:09;1.10;;;0.70;;
38037;SDS011;23843;51.320;12.340;2023-07-31T00:03:36;0.90;;;0.70;;
38037;SDS011;23843;51.320;12.340;2023-07-31T00:06:02;0.40;;;0.40;;
38037;SDS011;23843;51.320;12.340;2023-07-31T00:08:30;0.45;;;0.40;;
38037;SDS011;23843;51.320;12.340;2023-07-31T00:10:55;0.68;;;0.57;;
38037;SDS011;23843;51.320;12.340;2023-07-31T00:13:21;0.47;;;0.47;;
38037;SDS011;23843;51.320;12.340;2023-07-31T00:15:46;0.90;;;0.57;;
38037;SDS011;23843;51.320;12.340;2023-07-31T00:18:12;0.50;;;0.50;;
38037;SDS011;23843;51.320;12.340;2023-07-31T00:20:39;1.23;;;0.80;;
38037;SDS011;23843;51.320;12.340;2023-07-31T00:23:05;0.57;;;0.57;;
38037;SDS011;23843;51.320;12.340;2023-07-31T00:25:30;0.40;;;0.40;;
38037;SDS011;23843;51.320;12.340;2023-07-31T00:27:56;1.80;;;1.00;;
38037;SDS011;23843;51.320;12.340;2023-07-31T00:30:24;0.55;;;0.50;;
38037;SDS011;23843;51.320;12.340;2023-07-31T00:32:49;0.47;;;0.47;;
38037;SDS011;23843;51.320;12.340;2023-07-31T00:35:15;0.93;;;0.82;;
38037;SDS011;23843;51.320;12.340;2023-07-31T00:37:42;0.57;;;0.50;;
38037;SDS011;23843;51.320;12.340;2023-07-31T00:40:07;0.30;;;0.30;;
38037;SDS011;23843;51.320;12.340;2023-07-31T00:42:33;1.45;;;0.80;;
38037;SDS011;23843;51.320;12.340;2023-07-31T00:44:59;1.42;;;0.98;;
38037;SDS011;23843;51.320;12.340;2023-07-31T00:47:25;1.23;;;0.80;;
38037;SDS011;23843;51.320;12.340;2023-07-31T00:49:51;0.90;;;0.80;;
38037;SDS011;23843;51.320;12.340;2023-07-31T00:52:16;2.28;;;0.90;;
38037;SDS011;23843;51.320;12.340;2023-07-31T00:54:44;2.10;;;1.10;;
38037;SDS011;23843;51.320;12.340;2023-07-31T00:57:13;0.68;;;0.57;;
38037;SDS011;23843;51.320;12.340;2023-07-31T00:59:38;1.30;;;0.80;;
38037;SDS011;23843;51.320;12.340;2023-07-31T01:02:04;1.80;;;0.73;;
38037;SDS011;23843;51.320;12.340;2023-07-31T01:04:30;1.58;;;0.60;;
38037;SDS011;23843;51.320;12.340;2023-07-31T01:06:59;1.35;;;0.90;;
38037;SDS011;23843;51.320;12.340;2023-07-31T01:09:34;1.33;;;0.82;;
38037;SDS011;23843;51.320;12.340;2023-07-31T01:12:07;0.80;;;0.80;;
38037;SDS011;23843;51.320;12.340;2023-07-31T01:14:38;0.93;;;0.80;;
38037;SDS011;23843;51.320;12.340;2023-07-31T01:17:04;1.17;;;0.70;;
38037;SDS011;23843;51.320;12.340;2023-07-31T01:19:30;0.85;;;0.55;;
38037;SDS011;23843;51.320;12.340;2023-07-31T01:24:55;0.63;;;0.50;;
38037;SDS011;23843;51.320;12.340;2023-07-31T01:27:34;0.90;;;0.90;;
38037;SDS011;23843;51.320;12.340;2023-07-31T01:30:05;1.35;;;0.70;;
38037;SDS011;23843;51.320;12.340;2023-07-31T01:32:35;0.50;;;0.50;;
38037;SDS011;23843;51.320;12.340;2023-07-31T01:35:01;0.60;;;0.50;;
38037;SDS011;23843;51.320;12.340;2023-07-31T01:37:27;0.63;;;0.60;;
38037;SDS011;23843;51.320;12.340;2023-07-31T01:39:53;1.42;;;0.70;;
38037;SDS011;23843;51.320;12.340;2023-07-31T01:42:19;1.30;;;0.80;;
38037;SDS011;23843;51.320;12.340;2023-07-31T01:44:45;1.02;;;0.60;;
38037;SDS011;23843;51.320;12.340;2023-07-31T01:47:11;1.30;;;1.20;;
38037;SDS011;23843;51.320;12.340;2023-07-31T01:49:36;0.80;;;0.60;;
38037;SDS011;23843;51.320;12.340;2023-07-31T01:52:02;1.40;;;1.00;;
38037;SDS011;23843;51.320;12.340;2023-07-31T01:54:28;0.63;;;0.50;;
38037;SDS011;23843;51.320;12.340;2023-07-31T01:56:53;1.25;;;0.60;;
38037;SDS011;23843;51.320;12.340;2023-07-31T01:59:19;1.27;;;0.98;;
38037;SDS011;23843;51.320;12.340;2023-07-31T02:01:46;1.40;;;0.95;;
38037;SDS011;23843;51.320;12.340;2023-07-31T02:04:11;1.35;;;1.08;;
38037;SDS011;23843;51.320;12.340;2023-07-31T02:06:37;1.63;;;0.73;;
38037;SDS011;23843;51.320;12.340;2023-07-31T02:09:03;0.77;;;0.70;;
38037;SDS011;23843;51.320;12.340;2023-07-31T02:11:28;1.88;;;0.80;;
38037;SDS011;23843;51.320;12.340;2023-07-31T02:13:54;0.77;;;0.57;;
38037;SDS011;23843;51.320;12.340;2023-07-31T02:16:19;1.58;;;0.70;;
38037;SDS011;23843;51.320;12.340;2023-07-31T02:18:46;1.25;;;0.93;;
38037;SDS011;23843;51.320;12.340;2023-07-31T02:21:11;2.00;;;1.00;;
38037;SDS011;23843;51.320;12.340;2023-07-31T02:23:37;3.65;;;1.23;;
38037;SDS011;23843;51.320;12.340;2023-07-31T02:26:02;2.83;;;1.13;;
38037;SDS011;23843;51.320;12.340;2023-07-31T02:28:28;1.50;;;0.90;;
38037;SDS011;23843;51.320;12.340;2023-07-31T02:30:53;1.92;;;1.10;;
38037;SDS011;23843;51.320;12.340;2023-07-31T02:33:19;2.28;;;1.23;;
38037;SDS011;23843;51.320;12.340;2023-07-31T02:35:46;2.30;;;1.30;;
38037;SDS011;23843;51.320;12.340;2023-07-31T02:38:11;1.30;;;1.00;;
38037;SDS011;23843;51.320;12.340;2023-07-31T02:40:37;1.25;;;1.10;;
38037;SDS011;23843;51.320;12.340;2023-07-31T02:43:03;2.40;;;1.27;;
38037;SDS011;23843;51.320;12.340;2023-07-31T02:45:29;1.55;;;1.10;;
38037;SDS011;23843;51.320;12.340;2023-07-31T02:47:54;1.67;;;0.90;;
38037;SDS011;23843;51.320;12.340;2023-07-31T02:50:20;1.40;;;0.90;;
38037;SDS011;23843;51.320;12.340;2023-07-31T02:52:47;1.40;;;1.00;;
38037;SDS011;23843;51.320;12.340;2023-07-31T02:55:12;1.70;;;1.20;;
38037;SDS011;23843;51.320;12.340;2023-07-31T02:57:38;2.58;;;1.60;;
38037;SDS011;23843;51.320;12.340;2023-07-31T03:00:04;1.58;;;1.10;;
38037;SDS011;23843;51.320;12.340;2023-07-31T03:02:31;1.58;;;1.05;;
38037;SDS011;23843;51.320;12.340;2023-07-31T03:04:56;3.85;;;1.30;;
38037;SDS011;23843;51.320;12.340;2023-07-31T03:07:22;1.73;;;0.90;;
38037;SDS011;23843;51.320;12.340;2023-07-31T03:09:49;2.05;;;1.20;;
38037;SDS011;23843;51.320;12.340;2023-07-31T03:12:14;1.73;;;1.13;;
38037;SDS011;23843;51.320;12.340;2023-07-31T03:14:39;2.03;;;1.30;;
38037;SDS011;23843;51.320;12.340;2023-07-31T03:17:05;1.30;;;1.10;;
38037;SDS011;23843;51.320;12.340;2023-07-31T03:19:31;1.70;;;1.27;;
38037;SDS011;23843;51.320;12.340;2023-07-31T03:21:57;2.05;;;1.10;;
38037;SDS011;23843;51.320;12.340;2023-07-31T03:24:22;2.90;;;1.33;;
38037;SDS011;23843;51.320;12.340;2023-07-31T03:26:52;2.70;;;1.50;;
38037;SDS011;23843;51.320;12.340;2023-07-31T03:29:17;2.38;;;1.20;;
38037;SDS011;23843;51.320;12.340;2023-07-31T03:31:43;1.50;;;1.08;;
38037;SDS011;23843;51.320;12.340;2023-07-31T03:34:08;2.72;;;1.00;;
38037;SDS011;23843;51.320;12.340;2023-07-31T03:36:34;2.08;;;1.02;;
38037;SDS011;23843;51.320;12.340;2023-07-31T03:38:59;1.77;;;1.15;;
38037;SDS011;23843;51.320;12.340;2023-07-31T03:41:25;2.92;;;1.10;;
38037;SDS011;23843;51.320;12.340;2023-07-31T03:43:52;3.00;;;1.85;;
38037;SDS011;23843;51.320;12.340;2023-07-31T03:46:17;2.63;;;1.60;;
38037;SDS011;23843;51.320;12.340;2023-07-31T03:48:43;1.40;;;1.30;;
38037;SDS011;23843;51.320;12.340;2023-07-31T03:51:08;3.83;;;1.67;;
38037;SDS011;23843;51.320;12.340;2023-07-31T03:53:33;3.67;;;1.42;;
38037;SDS011;23843;51.320;12.340;2023-07-31T03:55:59;2.17;;;1.30;;
38037;SDS011;23843;51.320;12.340;2023-07-31T03:58:24;2.83;;;1.73;;
38037;SDS011;23843;51.320;12.340;2023-07-31T04:00:51;2.90;;;1.63;;
38037;SDS011;23843;51.320;12.340;2023-07-31T04:03:17;2.05;;;1.27;;
38037;SDS011;23843;51.320;12.340;2023-07-31T04:05:43;2.03;;;1.38;;
38037;SDS011;23843;51.320;12.340;2023-07-31T04:08:09;2.13;;;1.17;;
38037;SDS011;23843;51.320;12.340;2023-07-31T04:10:34;2.20;;;1.10;;
38037;SDS011;23843;51.320;12.340;2023-07-31T04:13:01;2.45;;;1.50;;
38037;SDS011;23843;51.320;12.340;2023-07-31T04:15:27;1.55;;;1.15;;
38037;SDS011;23843;51.320;12.340;2023-07-31T04:17:54;2.17;;;1.27;;
38037;SDS011;23843;51.320;12.340;2023-07-31T04:20:19;1.65;;;1.10;;
38037;SDS011;23843;51.320;12.340;2023-07-31T04:22:45;1.33;;;1.02;;
38037;SDS011;23843;51.320;12.340;2023-07-31T04:25:10;2.95;;;1.30;;
38037;SDS011;23843;51.320;12.340;2023-07-31T04:27:36;2.58;;;1.48;;
38037;SDS011;23843;51.320;12.340;2023-07-31T04:30:01;1.70;;;1.20;;
38037;SDS011;23843;51.320;12.340;2023-07-31T04:32:27;2.45;;;1.30;;
38037;SDS011;23843;51.320;12.340;2023-07-31T04:34:53;1.48;;;1.10;;
38037;SDS011;23843;51.320;12.340;2023-07-31T04:37:19;2.58;;;1.27;;
38037;SDS011;23843;51.320;12.340;2023-07-31T04:39:44;1.20;;;1.05;;
38037;SDS011;23843;51.320;12.340;2023-07-31T04:42:10;2.30;;;1.40;;
38037;SDS011;23843;51.320;12.340;2023-07-31T04:44:35;2.47;;;1.23;;
38037;SDS011;23843;51.320;12.340;2023-07-31T04:47:01;2.40;;;1.25;;
38037;SDS011;23843;51.320;12.340;2023-07-31T04:49:26;2.95;;;1.63;;
38037;SDS011;23843;51.320;12.340;2023-07-31T04:51:53;2.43;;;1.40;;
38037;SDS011;23843;51.320;12.340;2023-07-31T04:54:19;2.35;;;1.42;;
38037;SDS011;23843;51.320;12.340;2023-07-31T04:56:44;1.83;;;1.10;;
38037;SDS011;23843;51.320;12.340;2023-07-31T04:59:10;1.92;;;1.10;;
38037;SDS011;23843;51.320;12.340;2023-07-31T05:01:35;2.17;;;1.10;;
38037;SDS011;23843;51.320;12.340;2023-07-31T05:04:01;1.00;;;0.85;;
38037;SDS011;23843;51.320;12.340;2023-07-31T05:06:26;1.17;;;1.02;;
38037;SDS011;23843;51.320;12.340;2023-07-31T05:08:53;1.30;;;1.05;;
38037;SDS011;23843;51.320;12.340;2023-07-31T05:11:18;1.65;;;0.90;;
38037;SDS011;23843;51.320;12.340;2023-07-31T05:13:44;1.20;;;1.00;;
38037;SDS011;23843;51.320;12.340;2023-07-31T05:16:09;1.13;;;0.90;;
38037;SDS011;23843;51.320;12.340;2023-07-31T05:18:35;1.90;;;1.20;;
38037;SDS011;23843;51.320;12.340;2023-07-31T05:21:00;2.30;;;0.90;;
38037;SDS011;23843;51.320;12.340;2023-07-31T05:23:26;2.03;;;1.23;;
38037;SDS011;23843;51.320;12.340;2023-07-31T05:25:52;2.40;;;1.30;;
38037;SDS011;23843;51.320;12.340;2023-07-31T05:28:18;1.50;;;1.10;;
38037;SDS011;23843;51.320;12.340;2023-07-31T05:30:43;1.95;;;1.27;;
38037;SDS011;23843;51.320;12.340;2023-07-31T05:33:09;1.27;;;1.00;;
38037;SDS011;23843;51.320;12.340;2023-07-31T05:35:34;0.77;;;0.75;;
38037;SDS011;23843;51.320;12.340;2023-07-31T05:38:00;1.95;;;1.00;;
38037;SDS011;23843;51.320;12.340;2023-07-31T05:40:25;1.55;;;1.00;;
38037;SDS011;23843;51.320;12.340;2023-07-31T05:42:52;2.17;;;1.30;;
38037;SDS011;23843;51.320;12.340;2023-07-31T05:45:18;1.42;;;1.05;;
38037;SDS011;23843;51.320;12.340;2023-07-31T05:47:43;1.88;;;1.17;;
38037;SDS011;23843;51.320;12.340;2023-07-31T05:50:09;2.28;;;1.20;;
38037;SDS011;23843;51.320;12.340;2023-07-31T05:52:34;1.95;;;1.10;;
38037;SDS011;23843;51.320;12.340;2023-07-31T05:55:00;1.67;;;1.23;;
38037;SDS011;23843;51.320;12.340;2023-07-31T05:57:25;2.35;;;1.35;;
38037;SDS011;23843;51.320;12.340;2023-07-31T05:59:52;3.47;;;2.10;;
38037;SDS011;23843;51.320;12.340;2023-07-31T06:02:17;3.05;;;1.08;;
38037;SDS011;23843;51.320;12.340;2023-07-31T06:04:43;2.03;;;1.27;;
38037;SDS011;23843;51.320;12.340;2023-07-31T06:07:08;1.85;;;1.30;;
38037;SDS011;23843;51.320;12.340;2023-07-31T06:09:34;1.65;;;1.20;;
38037;SDS011;23843;51.320;12.340;2023-07-31T06:11:59;4.40;;;1.58;;
38037;SDS011;23843;51.320;12.340;2023-07-31T06:14:25;1.33;;;1.23;;
38037;SDS011;23843;51.320;12.340;2023-07-31T06:16:51;1.73;;;1.00;;
38037;SDS011;23843;51.320;12.340;2023-07-31T06:19:17;1.27;;;0.90;;
38037;SDS011;23843;51.320;12.340;2023-07-31T06:21:42;2.10;;;1.20;;
38037;SDS011;23843;51.320;12.340;2023-07-31T06:24:08;1.67;;;1.15;;
38037;SDS011;23843;51.320;12.340;2023-07-31T06:26:33;1.20;;;0.90;;
38037;SDS011;23843;51.320;12.340;2023-07-31T06:28:59;1.15;;;1.00;;
38037;SDS011;23843;51.320;12.340;2023-07-31T06:31:25;2.33;;;1.60;;
38037;SDS011;23843;51.320;12.340;2023-07-31T06:33:52;2.13;;;1.50;;
38037;SDS011;23843;51.320;12.340;2023-07-31T06:36:17;1.30;;;1.10;;
38037;SDS011;23843;51.320;12.340;2023-07-31T06:38:43;1.67;;;1.13;;
38037;SDS011;23843;51.320;12.340;2023-07-31T06:41:08;1.58;;;0.90;;
38037;SDS011;23843;51.320;12.340;2023-07-31T06:43:34;1.45;;;1.05;;
38037;SDS011;23843;51.320;12.340;2023-07-31T06:46:00;0.70;;;0.70;;
38037;SDS011;23843;51.320;12.340;2023-07-31T06:48:29;1.35;;;0.80;;
38037;SDS011;23843;51.320;12.340;2023-07-31T06:50:56;0.98;;;0.70;;
38037;SDS011;23843;51.320;12.340;2023-07-31T06:53:21;1.27;;;0.93;;
38037;SDS011;23843;51.320;12.340;2023-07-31T06:55:46;0.70;;;0.70;;
38037;SDS011;23843;51.320;12.340;2023-07-31T06:58:12;1.10;;;0.70;;
38037;SDS011;23843;51.320;12.340;2023-07-31T07:00:37;1.67;;;1.13;;
38037;SDS011;23843;51.320;12.340;2023-07-31T07:03:03;1.00;;;0.75;;
38037;SDS011;23843;51.320;12.340;2023-07-31T07:05:28;1.83;;;1.13;;
38037;SDS011;23843;51.320;12.340;2023-07-31T07:07:55;1.25;;;1.15;;
38037;SDS011;23843;51.320;12.340;2023-07-31T07:10:21;0.85;;;0.80;;
38037;SDS011;23843;51.320;12.340;2023-07-31T07:12:47;1.42;;;1.20;;
38037;SDS011;23843;51.320;12.340;2023-07-31T07:15:13;1.88;;;1.02;;
38037;SDS011;23843;51.320;12.340;2023-07-31T07:17:38;1.58;;;1.10;;
38037;SDS011;23843;51.320;12.340;2023-07-31T07:20:05;2.47;;;1.40;;
38037;SDS011;23843;51.320;12.340;2023-07-31T07:22:31;2.40;;;1.70;;
38037;SDS011;23843;51.320;12.340;2023-07-31T07:24:58;2.10;;;1.90;;
38037;SDS011;23843;51.320;12.340;2023-07-31T07:27:23;1.70;;;1.27;;
38037;SDS011;23843;51.320;12.340;2023-07-31T07:29:50;2.92;;;1.88;;
38037;SDS011;23843;51.320;12.340;2023-07-31T07:32:15;2.72;;;1.73;;
38037;SDS011;23843;51.320;12.340;2023-07-31T07:34:41;1.85;;;1.02;;
38037;SDS011;23843;51.320;12.340;2023-07-31T07:37:06;1.35;;;1.00;;
38037;SDS011;23843;51.320;12.340;2023-07-31T07:39:32;1.50;;;1.15;;
38037;SDS011;23843;51.320;12.340;2023-07-31T07:41:58;2.22;;;1.27;;
38037;SDS011;23843;51.320;12.340;2023-07-31T07:44:24;2.55;;;1.70;;
38037;SDS011;23843;51.320;12.340;2023-07-31T07:46:50;1.88;;;1.35;;
38037;SDS011;23843;51.320;12.340;2023-07-31T07:49:15;1.58;;;1.33;;
38037;SDS011;23843;51.320;12.340;2023-07-31T07:51:40;1.35;;;1.13;;
38037;SDS011;23843;51.320;12.340;2023-07-31T07:54:06;2.08;;;1.40;;
38037;SDS011;23843;51.320;12.340;2023-07-31T07:56:32;1.75;;;1.48;;
38037;SDS011;23843;51.320;12.340;2023-07-31T07:58:59;1.17;;;1.00;;
38037;SDS011;23843;51.320;12.340;2023-07-31T08:01:24;2.80;;;1.42;;
38037;SDS011;23843;51.320;12.340;2023-07-31T08:03:50;1.85;;;1.30;;
38037;SDS011;23843;51.320;12.340;2023-07-31T08:06:15;1.20;;;0.95;;
38037;SDS011;23843;51.320;12.340;2023-07-31T08:08:41;1.73;;;1.25;;
38037;SDS011;23843;51.320;12.340;2023-07-31T08:11:07;1.20;;;1.00;;
38037;SDS011;23843;51.320;12.340;2023-07-31T08:13:32;1.60;;;1.20;;
38037;SDS011;23843;51.320;12.340;2023-07-31T08:15:59;1.73;;;1.10;;
38037;SDS011;23843;51.320;12.340;2023-07-31T08:18:25;1.45;;;1.10;;
38037;SDS011;23843;51.320;12.340;2023-07-31T08:20:50;1.40;;;1.10;;
38037;SDS011;23843;51.320;12.340;2023-07-31T08:23:15;1.38;;;1.05;;
38037;SDS011;23843;51.320;12.340;2023-07-31T08:25:41;2.28;;;1.52;;
38037;SDS011;23843;51.320;12.340;2023-07-31T08:28:07;1.55;;;1.10;;
38037;SDS011;23843;51.320;12.340;2023-07-31T08:30:32;1.48;;;1.38;;
38037;SDS011;23843;51.320;12.340;2023-07-31T08:32:59;2.08;;;1.40;;
38037;SDS011;23843;51.320;12.340;2023-07-31T08:35:25;1.80;;;1.10;;
38037;SDS011;23843;51.320;12.340;2023-07-31T08:37:51;1.10;;;1.00;;
38037;SDS011;23843;51.320;12.340;2023-07-31T08:40:16;1.45;;;1.10;;
38037;SDS011;23843;51.320;12.340;2023-07-31T08:42:45;1.50;;;0.95;;
38037;SDS011;23843;51.320;12.340;2023-07-31T08:45:13;1.30;;;1.17;;
38037;SDS011;23843;51.320;12.340;2023-07-31T08:47:39;1.00;;;0.90;;
38037;SDS011;23843;51.320;12.340;2023-07-31T08:50:08;1.42;;;0.90;;
38037;SDS011;23843;51.320;12.340;2023-07-31T08:52:34;2.85;;;1.60;;
38037;SDS011;23843;51.320;12.340;2023-07-31T08:55:00;1.30;;;1.08;;
38037;SDS011;23843;51.320;12.340;2023-07-31T08:57:25;1.33;;;1.00;;
38037;SDS011;23843;51.320;12.340;2023-07-31T08:59:51;2.15;;;1.50;;
38037;SDS011;23843;51.320;12.340;2023-07-31T09:02:18;2.70;;;1.40;;
38037;SDS011;23843;51.320;12.340;2023-07-31T09:04:44;1.92;;;1.30;;
38037;SDS011;23843;51.320;12.340;2023-07-31T09:07:11;2.10;;;1.83;;
38037;SDS011;23843;51.320;12.340;2023-07-31T09:09:39;1.63;;;1.25;;
38037;SDS011;23843;51.320;12.340;2023-07-31T09:12:05;3.13;;;1.30;;
38037;SDS011;23843;51.320;12.340;2023-07-31T09:14:31;1.77;;;1.15;;
38037;SDS011;23843;51.320;12.340;2023-07-31T09:16:58;1.52;;;1.00;;
38037;SDS011;23843;51.320;12.340;2023-07-31T09:19:27;0.70;;;0.70;;
38037;SDS011;23843;51.320;12.340;2023-07-31T09:21:57;1.20;;;0.98;;
38037;SDS011;23843;51.320;12.340;2023-07-31T09:24:27;2.05;;;1.30;;
38037;SDS011;23843;51.320;12.340;2023-07-31T09:26:54;1.60;;;0.90;;
38037;SDS011;23843;51.320;12.340;2023-07-31T09:29:20;0.75;;;0.70;;
38037;SDS011;23843;51.320;12.340;2023-07-31T09:31:45;1.10;;;1.00;;
38037;SDS011;23843;51.320;12.340;2023-07-31T09:34:11;2.00;;;1.77;;
38037;SDS011;23843;51.320;12.340;2023-07-31T09:36:40;2.30;;;1.60;;
38037;SDS011;23843;51.320;12.340;2023-07-31T09:39:06;1.85;;;1.50;;
38037;SDS011;23843;51.320;12.340;2023-07-31T09:41:37;2.28;;;2.08;;
38037;SDS011;23843;51.320;12.340;2023-07-31T09:44:03;1.70;;;1.50;;
38037;SDS011;23843;51.320;12.340;2023-07-31T09:46:29;1.60;;;1.33;;
38037;SDS011;23843;51.320;12.340;2023-07-31T09:49:03;1.35;;;1.10;;
38037;SDS011;23843;51.320;12.340;2023-07-31T09:51:29;1.00;;;0.90;;
38037;SDS011;23843;51.320;12.340;2023-07-31T09:53:54;1.83;;;1.17;;
38037;SDS011;23843;51.320;12.340;2023-07-31T09:56:20;1.33;;;1.20;;
38037;SDS011;23843;51.320;12.340;2023-07-31T09:58:47;1.33;;;1.00;;
38037;SDS011;23843;51.320;12.340;2023-07-31T10:01:13;1.20;;;1.08;;
38037;SDS011;23843;51.320;12.340;2023-07-31T10:03:39;2.03;;;1.42;;
38037;SDS011;23843;51.320;12.340;2023-07-31T10:06:05;1.63;;;1.30;;
38037;SDS011;23843;51.320;12.340;2023-07-31T10:08:34;1.60;;;1.10;;
38037;SDS011;23843;51.320;12.340;2023-07-31T10:11:01;1.38;;;1.25;;
38037;SDS011;23843;51.320;12.340;2023-07-31T10:13:27;1.77;;;1.02;;
38037;SDS011;23843;51.320;12.340;2023-07-31T10:15:55;1.42;;;1.13;;
38037;SDS011;23843;51.320;12.340;2023-07-31T10:18:24;1.30;;;1.20;;
38037;SDS011;23843;51.320;12.340;2023-07-31T10:20:51;1.52;;;1.17;;
38037;SDS011;23843;51.320;12.340;2023-07-31T10:23:17;1.38;;;1.05;;
38037;SDS011;23843;51.320;12.340;2023-07-31T10:25:43;3.33;;;1.67;;
38037;SDS011;23843;51.320;12.340;2023-07-31T10:28:09;2.28;;;1.70;;
38037;SDS011;23843;51.320;12.340;2023-07-31T10:30:36;2.10;;;1.90;;
38037;SDS011;23843;51.320;12.340;2023-07-31T10:33:04;1.98;;;1.63;;
38037;SDS011;23843;51.320;12.340;2023-07-31T10:35:31;2.70;;;1.40;;
38037;SDS011;23843;51.320;12.340;2023-07-31T10:37:56;1.63;;;1.30;;
38037;SDS011;23843;51.320;12.340;2023-07-31T10:40:34;2.40;;;1.70;;
38037;SDS011;23843;51.320;12.340;2023-07-31T10:43:00;1.58;;;1.27;;
38037;SDS011;23843;51.320;12.340;2023-07-31T10:45:27;2.25;;;1.30;;
38037;SDS011;23843;51.320;12.340;2023-07-31T10:47:59;1.50;;;1.35;;
38037;SDS011;23843;51.320;12.340;2023-07-31T10:50:27;1.73;;;1.27;;
38037;SDS011;23843;51.320;12.340;2023-07-31T10:52:53;1.40;;;1.30;;
38037;SDS011;23843;51.320;12.340;2023-07-31T10:55:27;1.45;;;1.33;;
38037;SDS011;23843;51.320;12.340;2023-07-31T10:57:54;1.95;;;1.60;;
38037;SDS011;23843;51.320;12.340;2023-07-31T11:00:21;1.85;;;1.63;;
38037;SDS011;23843;51.320;12.340;2023-07-31T11:02:59;2.05;;;1.75;;
38037;SDS011;23843;51.320;12.340;2023-07-31T11:05:43;3.85;;;1.63;;
38037;SDS011;23843;51.320;12.340;2023-07-31T11:08:10;3.55;;;1.73;;
38037;SDS011;23843;51.320;12.340;2023-07-31T11:10:37;1.98;;;1.55;;
38037;SDS011;23843;51.320;12.340;2023-07-31T11:13:03;2.70;;;1.90;;
38037;SDS011;23843;51.320;12.340;2023-07-31T11:15:29;1.65;;;1.52;;
38037;SDS011;23843;51.320;12.340;2023-07-31T11:17:55;2.35;;;1.60;;
38037;SDS011;23843;51.320;12.340;2023-07-31T11:20:22;3.05;;;2.00;;
38037;SDS011;23843;51.320;12.340;2023-07-31T11:22:49;1.92;;;1.40;;
38037;SDS011;23843;51.320;12.340;2023-07-31T11:25:14;2.80;;;1.70;;
38037;SDS011;23843;51.320;12.340;2023-07-31T11:27:41;1.92;;;1.67;;
38037;SDS011;23843;51.320;12.340;2023-07-31T11:30:07;1.63;;;1.52;;
38037;SDS011;23843;51.320;12.340;2023-07-31T11:32:33;1.75;;;1.58;;
38037;SDS011;23843;51.320;12.340;2023-07-31T11:34:58;2.45;;;1.75;;
38037;SDS011;23843;51.320;12.340;2023-07-31T11:37:23;1.73;;;1.50;;
38037;SDS011;23843;51.320;12.340;2023-07-31T11:40:00;1.60;;;1.20;;
38037;SDS011;23843;51.320;12.340;2023-07-31T11:42:26;2.13;;;1.58;;
38037;SDS011;23843;51.320;12.340;2023-07-31T11:44:51;2.22;;;1.52;;
38037;SDS011;23843;51.320;12.340;2023-07-31T11:47:17;1.77;;;1.30;;
38037;SDS011;23843;51.320;12.340;2023-07-31T11:49:43;2.38;;;1.67;;
38037;SDS011;23843;51.320;12.340;2023-07-31T11:52:08;2.05;;;1.45;;
38037;SDS011;23843;51.320;12.340;2023-07-31T11:54:35;2.30;;;1.73;;
38037;SDS011;23843;51.320;12.340;2023-07-31T11:57:02;3.20;;;1.50;;
38037;SDS011;23843;51.320;12.340;2023-07-31T11:59:29;1.58;;;1.40;;
38037;SDS011;23843;51.320;12.340;2023-07-31T12:01:55;1.63;;;1.50;;
38037;SDS011;23843;51.320;12.340;2023-07-31T12:04:20;1.83;;;1.70;;
38037;SDS011;23843;51.320;12.340;2023-07-31T12:06:46;1.40;;;1.20;;
38037;SDS011;23843;51.320;12.340;2023-07-31T12:09:12;1.42;;;1.33;;
38037;SDS011;23843;51.320;12.340;2023-07-31T12:11:42;1.52;;;1.25;;
38037;SDS011;23843;51.320;12.340;2023-07-31T12:14:10;2.05;;;1.55;;
38037;SDS011;23843;51.320;12.340;2023-07-31T12:16:47;2.15;;;1.30;;
38037;SDS011;23843;51.320;12.340;2023-07-31T12:19:12;1.70;;;1.30;;
38037;SDS011;23843;51.320;12.340;2023-07-31T12:21:38;1.73;;;1.30;;
38037;SDS011;23843;51.320;12.340;2023-07-31T12:24:04;2.55;;;2.00;;
38037;SDS011;23843;51.320;12.340;2023-07-31T12:26:33;2.60;;;1.80;;
38037;SDS011;23843;51.320;12.340;2023-07-31T12:28:59;1.70;;;1.40;;
38037;SDS011;23843;51.320;12.340;2023-07-31T12:31:27;1.13;;;0.93;;
38037;SDS011;23843;51.320;12.340;2023-07-31T12:33:53;1.60;;;1.42;;
38037;SDS011;23843;51.320;12.340;2023-07-31T12:36:21;1.60;;;1.40;;
38037;SDS011;23843;51.320;12.340;2023-07-31T12:38:48;1.73;;;1.42;;
38037;SDS011;23843;51.320;12.340;2023-07-31T12:41:15;2.28;;;2.08;;
38037;SDS011;23843;51.320;12.340;2023-07-31T12:43:41;2.13;;;1.92;;
38037;SDS011;23843;51.320;12.340;2023-07-31T12:46:07;2.30;;;2.10;;
38037;SDS011;23843;51.320;12.340;2023-07-31T12:48:35;1.33;;;1.20;;
38037;SDS011;23843;51.320;12.340;2023-07-31T12:51:01;1.33;;;1.23;;
38037;SDS011;23843;51.320;12.340;2023-07-31T12:53:30;2.28;;;1.80;;
38037;SDS011;23843;51.320;12.340;2023-07-31T12:55:56;2.38;;;1.77;;
38037;SDS011;23843;51.320;12.340;2023-07-31T12:58:24;2.15;;;1.50;;
38037;SDS011;23843;51.320;12.340;2023-07-31T13:00:53;1.67;;;1.40;;
38037;SDS011;23843;51.320;12.340;2023-07-31T13:03:18;1.77;;;1.40;;
38037;SDS011;23843;51.320;12.340;2023-07-31T13:05:45;1.75;;;1.10;;
38037;SDS011;23843;51.320;12.340;2023-07-31T13:08:11;1.52;;;1.13;;
38037;SDS011;23843;51.320;12.340;2023-07-31T13:10:36;1.80;;;1.70;;
38037;SDS011;23843;51.320;12.340;2023-07-31T13:13:02;2.10;;;1.60;;
38037;SDS011;23843;51.320;12.340;2023-07-31T13:15:33;1.83;;;1.48;;
38037;SDS011;23843;51.320;12.340;2023-07-31T13:18:02;1.80;;;1.50;;
38037;SDS011;23843;51.320;12.340;2023-07-31T13:20:27;1.95;;;1.55;;
38037;SDS011;23843;51.320;12.340;2023-07-31T13:22:54;1.98;;;1.70;;
38037;SDS011;23843;51.320;12.340;2023-07-31T13:25:20;2.03;;;1.40;;
38037;SDS011;23843;51.320;12.340;2023-07-31T13:27:45;2.20;;;1.73;;
38037;SDS011;23843;51.320;12.340;2023-07-31T13:30:11;1.90;;;1.70;;
38037;SDS011;23843;51.320;12.340;2023-07-31T13:32:37;1.80;;;1.60;;
38037;SDS011;23843;51.320;12.340;2023-07-31T13:35:02;1.50;;;1.30;;
38037;SDS011;23843;51.320;12.340;2023-07-31T13:37:28;2.35;;;1.30;;
38037;SDS011;23843;51.320;12.340;2023-07-31T13:39:55;1.30;;;1.00;;
38037;SDS011;23843;51.320;12.340;2023-07-31T13:42:21;1.20;;;1.10;;
38037;SDS011;23843;51.320;12.340;2023-07-31T13:44:47;1.90;;;1.58;;
38037;SDS011;23843;51.320;12.340;2023-07-31T13:47:12;1.60;;;1.40;;
38037;SDS011;23843;51.320;12.340;2023-07-31T13:49:40;1.38;;;1.27;;
38037;SDS011;23843;51.320;12.340;2023-07-31T13:52:06;1.60;;;1.40;;
38037;SDS011;23843;51.320;12.340;2023-07-31T13:54:32;1.33;;;1.15;;
38037;SDS011;23843;51.320;12.340;2023-07-31T13:56:59;1.40;;;1.20;;
38037;SDS011;23843;51.320;12.340;2023-07-31T13:59:24;1.42;;;1.33;;
38037;SDS011;23843;51.320;12.340;2023-07-31T14:01:52;1.38;;;1.20;;
38037;SDS011;23843;51.320;12.340;2023-07-31T14:04:18;1.73;;;1.20;;
38037;SDS011;23843;51.320;12.340;2023-07-31T14:06:46;1.85;;;1.40;;
38037;SDS011;23843;51.320;12.340;2023-07-31T14:09:12;2.55;;;1.80;;
38037;SDS011;23843;51.320;12.340;2023-07-31T14:11:37;1.50;;;1.17;;
38037;SDS011;23843;51.320;12.340;2023-07-31T14:14:04;2.17;;;1.50;;
38037;SDS011;23843;51.320;12.340;2023-07-31T14:16:30;2.17;;;1.27;;
38037;SDS011;23843;51.320;12.340;2023-07-31T14:18:56;1.27;;;1.08;;
38037;SDS011;23843;51.320;12.340;2023-07-31T14:21:21;1.60;;;1.50;;
38037;SDS011;23843;51.320;12.340;2023-07-31T14:23:47;1.92;;;1.42;;
38037;SDS011;23843;51.320;12.340;2023-07-31T14:26:15;1.63;;;1.38;;
38037;SDS011;23843;51.320;12.340;2023-07-31T14:28:40;2.28;;;1.58;;
38037;SDS011;23843;51.320;12.340;2023-07-31T14:31:07;1.27;;;1.17;;